createdAt,value
2018-06-23T00:00:58.536Z,234.27
2018-06-23T00:03:27.036Z,199.20
2018-06-23T00:05:55.828Z,182.00
2018-06-23T00:08:24.627Z,118.20
2018-06-23T00:10:53.198Z,105.93
2018-06-23T00:13:22.611Z,129.23
2018-06-23T00:15:53.518Z,136.70
2018-06-23T00:18:22.024Z,120.70
2018-06-23T00:20:50.540Z,78.87
2018-06-23T00:23:19.049Z,37.27
2018-06-23T00:25:52.800Z,31.47
2018-06-23T00:28:21.503Z,25.63
2018-06-23T00:30:50.011Z,30.37
2018-06-23T00:33:18.583Z,34.60
2018-06-23T00:35:47.078Z,41.27
2018-06-23T00:38:15.613Z,77.37
2018-06-23T00:40:44.136Z,108.00
2018-06-23T00:43:12.733Z,145.00
2018-06-23T00:45:41.259Z,191.87
2018-06-23T00:48:09.761Z,183.17
2018-06-23T00:50:38.300Z,237.77
2018-06-23T00:53:06.800Z,242.50
2018-06-23T00:55:35.372Z,278.17
2018-06-23T00:58:03.870Z,312.30
2018-06-23T01:00:38.729Z,344.90
2018-06-23T01:03:07.406Z,333.07
2018-06-23T01:05:35.896Z,350.47
2018-06-23T01:08:04.424Z,384.47
2018-06-23T01:10:32.643Z,421.43
2018-06-23T01:13:01.172Z,417.23
2018-06-23T01:15:29.704Z,385.33
2018-06-23T01:17:58.186Z,362.63
2018-06-23T01:20:26.735Z,359.73
2018-06-23T01:22:55.280Z,357.67
2018-06-23T01:25:23.780Z,394.50
2018-06-23T01:27:52.267Z,406.87
2018-06-23T01:30:20.796Z,437.30
2018-06-23T01:32:49.523Z,447.33
2018-06-23T01:35:18.016Z,429.83
2018-06-23T01:37:46.544Z,434.87
2018-06-23T01:40:15.029Z,431.57
2018-06-23T01:42:43.513Z,434.07
2018-06-23T01:45:12.044Z,403.40
2018-06-23T01:47:40.543Z,428.70
2018-06-23T01:50:09.096Z,430.67
2018-06-23T01:52:37.596Z,407.50
2018-06-23T01:55:06.147Z,375.40
2018-06-23T01:57:34.837Z,362.17
2018-06-23T02:00:03.332Z,308.17
2018-06-23T02:02:31.868Z,306.00
2018-06-23T02:05:00.380Z,324.43
2018-06-23T02:07:28.935Z,338.17
2018-06-23T02:09:57.461Z,451.67
2018-06-23T02:12:25.998Z,509.73
2018-06-23T02:14:59.937Z,498.57
2018-06-23T02:17:33.773Z,490.10
2018-06-23T02:20:07.638Z,430.93
2018-06-23T02:22:41.607Z,450.30
2018-06-23T02:25:15.084Z,450.87
2018-06-23T02:27:48.855Z,510.73
2018-06-23T02:30:22.853Z,577.00
2018-06-23T02:32:53.362Z,563.43
2018-06-23T02:35:22.409Z,607.60
2018-06-23T02:37:51.000Z,621.90
2018-06-23T02:40:19.516Z,609.80
2018-06-23T02:42:48.017Z,599.57
2018-06-23T02:45:16.566Z,556.57
2018-06-23T02:47:45.028Z,560.30
2018-06-23T02:50:13.567Z,584.57
2018-06-23T02:52:42.021Z,587.83
2018-06-23T02:55:10.538Z,573.00
2018-06-23T02:57:39.021Z,563.67
2018-06-23T03:00:07.514Z,571.60
2018-06-23T03:02:36.008Z,566.37
2018-06-23T03:05:04.776Z,591.33
2018-06-23T03:07:33.303Z,571.27
2018-06-23T03:10:01.762Z,558.30
2018-06-23T03:12:30.441Z,550.47
2018-06-23T03:14:59.093Z,560.20
2018-06-23T03:17:27.256Z,559.93
2018-06-23T03:19:55.769Z,559.07
2018-06-23T03:22:24.252Z,565.87
2018-06-23T03:24:52.745Z,547.00
2018-06-23T03:27:21.286Z,504.50
2018-06-23T03:29:49.737Z,559.90
2018-06-23T03:32:18.289Z,547.20
2018-06-23T03:34:46.784Z,558.13
2018-06-23T03:37:15.244Z,540.40
2018-06-23T03:39:43.737Z,506.67
2018-06-23T03:42:12.233Z,522.33
2018-06-23T03:44:40.746Z,529.77
2018-06-23T03:47:09.237Z,557.17
2018-06-23T03:49:37.731Z,570.87
2018-06-23T03:52:06.258Z,567.80
2018-06-23T03:54:34.715Z,550.17
2018-06-23T03:57:02.878Z,556.83
2018-06-23T03:59:31.993Z,550.30
2018-06-23T04:02:00.639Z,502.23
2018-06-23T04:04:29.140Z,462.63
2018-06-23T04:06:57.358Z,362.47
2018-06-23T04:09:25.840Z,371.03
2018-06-23T04:11:54.388Z,298.30
2018-06-23T04:14:22.937Z,209.37
2018-06-23T04:16:51.548Z,108.47
2018-06-23T04:19:20.004Z,90.63
2018-06-23T04:21:48.517Z,93.67
2018-06-23T04:24:17.028Z,94.90
2018-06-23T04:26:45.528Z,103.77
2018-06-23T04:29:14.045Z,126.40
2018-06-23T04:31:42.565Z,156.20
2018-06-23T04:34:11.091Z,213.57
2018-06-23T04:36:39.596Z,209.17
2018-06-23T04:39:08.727Z,227.17
2018-06-23T04:41:37.755Z,232.20
2018-06-23T04:44:06.496Z,249.77
2018-06-23T04:46:35.133Z,251.70
2018-06-23T04:49:03.659Z,231.20
2018-06-23T04:51:32.040Z,265.20
2018-06-23T04:54:00.213Z,223.80
2018-06-23T04:56:28.719Z,164.80
2018-06-23T04:58:57.218Z,172.30
2018-06-23T05:01:25.933Z,213.93
2018-06-23T05:03:54.489Z,228.03
2018-06-23T05:06:22.988Z,214.50
2018-06-23T05:08:51.500Z,258.67
2018-06-23T05:11:20.896Z,291.83
2018-06-23T05:13:49.396Z,347.47
2018-06-23T05:16:17.913Z,409.77
2018-06-23T05:18:46.905Z,396.53
2018-06-23T05:21:15.439Z,287.43
2018-06-23T05:23:43.933Z,276.43
2018-06-23T05:26:12.417Z,237.87
2018-06-23T05:28:40.742Z,189.13
2018-06-23T05:31:09.272Z,117.37
2018-06-23T05:33:37.752Z,125.50
2018-06-23T05:36:06.325Z,139.43
2018-06-23T05:38:34.800Z,149.93
2018-06-23T05:41:03.336Z,149.90
2018-06-23T05:43:31.828Z,149.27
2018-06-23T05:46:00.400Z,286.03
2018-06-23T05:48:28.891Z,373.17
2018-06-23T05:50:57.449Z,247.80
2018-06-23T05:53:25.623Z,410.53
2018-06-23T05:55:54.665Z,586.77
2018-06-23T05:58:23.178Z,605.70
2018-06-23T06:00:51.737Z,654.73
2018-06-23T06:03:20.225Z,661.83
2018-06-23T06:05:48.750Z,543.20
2018-06-23T06:08:17.252Z,571.77
2018-06-23T06:10:45.806Z,526.07
2018-06-23T06:13:14.331Z,617.03
2018-06-23T06:15:42.832Z,585.63
2018-06-23T06:18:11.366Z,603.80
2018-06-23T06:20:39.861Z,369.90
2018-06-23T06:23:08.383Z,403.20
2018-06-23T06:25:36.861Z,389.93
2018-06-23T06:28:05.416Z,209.80
2018-06-23T06:30:33.892Z,93.70
2018-06-23T06:33:02.412Z,107.67
2018-06-23T06:35:30.962Z,163.43
2018-06-23T06:37:59.524Z,113.97
2018-06-23T06:40:28.001Z,66.10
2018-06-23T06:42:56.772Z,46.67
2018-06-23T06:45:25.238Z,65.77
2018-06-23T06:47:53.748Z,77.50
2018-06-23T06:50:22.276Z,59.23
2018-06-23T06:52:50.779Z,95.53
2018-06-23T06:55:19.304Z,78.17
2018-06-23T06:57:47.467Z,137.90
2018-06-23T07:00:15.994Z,60.07
2018-06-23T07:02:44.533Z,60.77
2018-06-23T07:05:13.049Z,79.93
2018-06-23T07:07:41.568Z,123.47
2018-06-23T07:10:10.085Z,71.57
2018-06-23T07:12:38.620Z,238.30
2018-06-23T07:15:15.313Z,286.27
2018-06-23T07:17:44.103Z,172.10
2018-06-23T07:20:13.194Z,167.47
2018-06-23T07:22:42.127Z,134.63
2018-06-23T07:25:10.614Z,67.37
2018-06-23T07:27:38.875Z,55.27
2018-06-23T07:30:07.897Z,126.03
2018-06-23T07:32:36.444Z,251.80
2018-06-23T07:35:05.066Z,212.90
2018-06-23T07:37:33.560Z,178.90
2018-06-23T07:40:02.095Z,108.03
2018-06-23T07:42:30.644Z,119.47
2018-06-23T07:44:59.217Z,44.77
2018-06-23T07:47:27.685Z,107.80
2018-06-23T07:49:56.196Z,102.10
2018-06-23T07:52:24.665Z,193.87
2018-06-23T07:54:53.151Z,112.13
2018-06-23T07:57:21.640Z,147.20
2018-06-23T07:59:50.136Z,83.87
2018-06-23T08:02:18.602Z,183.53
2018-06-23T08:04:47.301Z,300.27
2018-06-23T08:07:15.882Z,333.83
2018-06-23T08:09:44.365Z,278.23
2018-06-23T08:12:12.955Z,374.13
2018-06-23T08:14:41.462Z,375.27
2018-06-23T08:17:09.962Z,370.73
2018-06-23T08:19:38.211Z,296.13
2018-06-23T08:22:06.770Z,262.57
2018-06-23T08:24:35.294Z,239.70
2018-06-23T08:27:03.844Z,299.30
2018-06-23T08:29:32.330Z,363.40
2018-06-23T08:32:00.985Z,386.53
2018-06-23T08:34:29.590Z,380.10
2018-06-23T08:36:58.128Z,355.90
2018-06-23T08:39:26.968Z,376.80
2018-06-23T08:41:55.996Z,368.80
2018-06-23T08:44:24.493Z,362.33
2018-06-23T08:46:53.057Z,313.77
2018-06-23T08:49:21.532Z,220.67
2018-06-23T08:51:50.101Z,167.47
2018-06-23T08:54:18.573Z,363.53
2018-06-23T08:56:47.128Z,398.20
2018-06-23T08:59:15.612Z,311.07
2018-06-23T09:01:44.144Z,151.43
2018-06-23T09:04:12.623Z,117.27
2018-06-23T09:06:41.153Z,53.97
2018-06-23T09:09:10.715Z,52.13
2018-06-23T09:11:39.724Z,71.60
2018-06-23T09:14:08.425Z,78.47
2018-06-23T09:16:37.320Z,63.83
2018-06-23T09:19:05.929Z,64.37
2018-06-23T09:21:34.635Z,61.03
2018-06-23T09:24:03.218Z,74.73
2018-06-23T09:26:32.701Z,134.10
2018-06-23T09:29:01.219Z,66.53
2018-06-23T09:31:29.700Z,62.80
2018-06-23T09:33:58.229Z,66.97
2018-06-23T09:36:26.717Z,87.60
2018-06-23T09:38:54.932Z,89.57
2018-06-23T09:41:23.827Z,97.40
2018-06-23T09:43:52.355Z,119.43
2018-06-23T09:46:20.888Z,94.90
2018-06-23T09:48:49.420Z,99.00
2018-06-23T09:51:17.937Z,87.80
2018-06-23T09:53:46.462Z,88.37
2018-06-23T09:56:14.924Z,91.70
2018-06-23T09:58:43.432Z,113.90
2018-06-23T10:01:11.964Z,124.87
2018-06-23T10:03:40.461Z,112.23
2018-06-23T10:06:08.981Z,129.53
2018-06-23T10:08:37.631Z,145.17
2018-06-23T10:11:06.288Z,110.87
2018-06-23T10:13:34.766Z,156.87
2018-06-23T10:16:03.432Z,133.93
2018-06-23T10:18:31.972Z,144.57
2018-06-23T10:21:00.692Z,175.43
2018-06-23T10:23:29.192Z,169.77
2018-06-23T10:25:57.838Z,143.63
2018-06-23T10:28:26.552Z,142.60
2018-06-23T10:30:55.177Z,178.97
2018-06-23T10:33:23.700Z,163.50
2018-06-23T10:35:55.281Z,168.07
2018-06-23T10:38:23.921Z,204.23
2018-06-23T10:40:52.472Z,101.83
2018-06-23T10:43:21.064Z,165.23
2018-06-23T10:45:49.634Z,119.33
2018-06-23T10:48:17.866Z,120.77
2018-06-23T10:50:46.383Z,42.53
2018-06-23T10:53:14.862Z,44.90
2018-06-23T10:55:43.382Z,47.63
2018-06-23T10:58:11.938Z,44.10
2018-06-23T11:00:40.547Z,27.90
2018-06-23T11:03:09.313Z,40.53
2018-06-23T11:05:37.813Z,35.43
2018-06-23T11:08:06.362Z,33.87
2018-06-23T11:10:34.943Z,36.03
2018-06-23T11:13:03.461Z,38.00
2018-06-23T11:15:31.945Z,41.10
2018-06-23T11:18:00.630Z,58.37
2018-06-23T11:20:35.773Z,52.67
2018-06-23T11:23:18.687Z,46.47
2018-06-23T11:25:55.809Z,101.23
2018-06-23T11:28:29.646Z,72.67
2018-06-23T11:31:02.381Z,83.80
2018-06-23T11:33:44.027Z,110.67
2018-06-23T11:36:31.135Z,109.23
2018-06-23T11:38:59.885Z,107.87
2018-06-23T11:41:28.433Z,103.87
2018-06-23T11:43:56.945Z,54.30
2018-06-23T11:46:25.524Z,71.17
2018-06-23T11:48:54.069Z,103.63
2018-06-23T11:51:22.321Z,86.07
2018-06-23T11:53:50.805Z,78.30
2018-06-23T11:56:19.337Z,63.83
2018-06-23T11:58:47.877Z,61.03
2018-06-23T12:01:16.373Z,63.93
2018-06-23T12:03:45.135Z,69.00
2018-06-23T12:06:13.656Z,74.70
2018-06-23T12:08:41.822Z,73.70
2018-06-23T12:11:10.417Z,75.47
2018-06-23T12:13:39.066Z,87.77
2018-06-23T12:16:07.597Z,76.40
2018-06-23T12:18:37.884Z,70.70
2018-06-23T12:21:07.622Z,71.67
2018-06-23T12:23:40.636Z,85.57
2018-06-23T12:26:17.567Z,110.10
2018-06-23T12:28:49.823Z,109.90
2018-06-23T12:31:18.180Z,97.77
2018-06-23T12:33:46.697Z,95.53
2018-06-23T12:36:15.188Z,108.77
2018-06-23T12:38:43.739Z,96.13
2018-06-23T12:41:12.302Z,147.50
2018-06-23T12:43:40.908Z,235.93
2018-06-23T12:46:09.400Z,362.13
2018-06-23T12:48:38.112Z,383.63
2018-06-23T12:51:06.658Z,365.03
2018-06-23T12:53:35.149Z,253.20
2018-06-23T12:56:03.724Z,217.83
2018-06-23T12:58:32.317Z,301.30
2018-06-23T13:01:00.856Z,323.93
2018-06-23T13:03:29.353Z,268.80
2018-06-23T13:05:57.901Z,187.87
2018-06-23T13:08:26.415Z,155.97
2018-06-23T13:10:54.939Z,134.57
2018-06-23T13:13:23.433Z,108.20
2018-06-23T13:15:51.952Z,83.33
2018-06-23T13:18:20.476Z,85.67
2018-06-23T13:20:48.966Z,74.93
2018-06-23T13:23:17.519Z,66.40
2018-06-23T13:25:47.360Z,115.37
2018-06-23T13:28:16.002Z,249.43
2018-06-23T13:30:44.499Z,236.27
2018-06-23T13:33:12.996Z,154.03
2018-06-23T13:35:42.036Z,160.23
2018-06-23T13:38:10.551Z,130.33
2018-06-23T13:40:40.354Z,125.43
2018-06-23T13:43:11.489Z,48.13
2018-06-23T13:45:40.216Z,58.47
2018-06-23T13:48:08.671Z,58.00
2018-06-23T13:50:37.240Z,104.37
2018-06-23T13:53:05.766Z,141.97
2018-06-23T13:55:34.360Z,115.47
2018-06-23T13:58:02.880Z,111.77
2018-06-23T14:00:31.432Z,106.97
2018-06-23T14:03:00.056Z,90.13
2018-06-23T14:05:28.326Z,62.37
2018-06-23T14:07:56.808Z,37.30
2018-06-23T14:10:25.034Z,113.00
2018-06-23T14:12:53.658Z,182.43
2018-06-23T14:15:22.136Z,115.77
2018-06-23T14:17:50.632Z,92.33
2018-06-23T14:20:19.153Z,119.33
2018-06-23T14:22:47.952Z,117.03
2018-06-23T14:25:16.749Z,127.77
2018-06-23T14:27:50.131Z,109.87
2018-06-23T14:30:18.729Z,110.83
2018-06-23T14:32:47.229Z,112.63
2018-06-23T14:35:15.826Z,173.83
2018-06-23T14:37:44.313Z,178.47
2018-06-23T14:40:13.039Z,142.10
2018-06-23T14:42:41.528Z,139.03
2018-06-23T14:45:13.140Z,148.03
2018-06-23T14:47:41.683Z,201.73
2018-06-23T14:50:10.440Z,149.00
2018-06-23T14:52:38.952Z,148.87
2018-06-23T14:55:07.504Z,193.00
2018-06-23T14:57:36.169Z,139.27
2018-06-23T15:00:05.109Z,132.13
2018-06-23T15:02:33.630Z,122.40
2018-06-23T15:05:02.211Z,114.73
2018-06-23T15:07:30.736Z,116.83
2018-06-23T15:10:10.401Z,146.47
2018-06-23T15:12:50.228Z,124.33
2018-06-23T15:15:18.776Z,175.90
2018-06-23T15:17:47.260Z,116.17
2018-06-23T15:20:15.813Z,163.80
2018-06-23T15:22:44.353Z,139.50
2018-06-23T15:25:12.918Z,188.97
2018-06-23T15:27:41.439Z,212.00
2018-06-23T15:30:09.938Z,206.73
2018-06-23T15:32:38.448Z,197.53
2018-06-23T15:35:06.950Z,210.03
2018-06-23T15:37:35.525Z,179.27
2018-06-23T15:40:04.079Z,164.10
2018-06-23T15:42:32.529Z,222.53
2018-06-23T15:45:01.020Z,232.47
2018-06-23T15:47:29.565Z,226.47
2018-06-23T15:49:58.152Z,211.77
2018-06-23T15:52:26.320Z,223.10
2018-06-23T15:54:54.815Z,222.90
2018-06-23T15:57:23.324Z,208.50
2018-06-23T15:59:51.817Z,218.30
2018-06-23T16:02:20.330Z,189.23
2018-06-23T16:04:48.821Z,226.43
2018-06-23T16:07:17.339Z,186.77
2018-06-23T16:09:45.875Z,190.33
2018-06-23T16:12:14.356Z,183.93
2018-06-23T16:14:42.913Z,166.70
2018-06-23T16:17:11.599Z,101.77
2018-06-23T16:19:40.453Z,106.27
2018-06-23T16:22:08.928Z,121.27
2018-06-23T16:24:37.472Z,120.70
2018-06-23T16:27:06.001Z,115.23
2018-06-23T16:29:34.179Z,133.57
2018-06-23T16:32:02.728Z,191.97
2018-06-23T16:34:31.278Z,159.43
2018-06-23T16:36:59.931Z,189.07
2018-06-23T16:39:31.040Z,210.00
2018-06-23T16:41:59.860Z,256.73
2018-06-23T16:44:28.357Z,200.83
2018-06-23T16:46:56.628Z,170.90
2018-06-23T16:49:25.197Z,178.63
2018-06-23T16:51:53.679Z,126.90
2018-06-23T16:54:22.301Z,78.87
2018-06-23T16:56:50.812Z,62.00
2018-06-23T16:59:19.334Z,46.60
2018-06-23T17:01:47.860Z,52.27
2018-06-23T17:04:16.409Z,50.10
2018-06-23T17:06:44.879Z,81.50
2018-06-23T17:09:13.393Z,143.50
2018-06-23T17:11:42.193Z,106.17
2018-06-23T17:14:10.709Z,120.37
2018-06-23T17:16:39.189Z,99.43
2018-06-23T17:19:07.793Z,212.83
2018-06-23T17:21:36.289Z,118.27
2018-06-23T17:24:04.784Z,76.77
2018-06-23T17:26:33.256Z,145.17
2018-06-23T17:29:01.474Z,180.50
2018-06-23T17:31:31.494Z,189.93
2018-06-23T17:33:59.735Z,219.33
2018-06-23T17:36:28.203Z,182.40
2018-06-23T17:38:56.742Z,146.67
2018-06-23T17:41:25.389Z,184.20
2018-06-23T17:43:53.576Z,114.77
2018-06-23T17:46:22.099Z,151.97
2018-06-23T17:48:50.560Z,161.17
2018-06-23T17:51:19.052Z,158.43
2018-06-23T17:53:47.585Z,137.50
2018-06-23T17:56:15.800Z,166.17
2018-06-23T17:58:44.342Z,117.40
2018-06-23T18:01:12.553Z,110.80
2018-06-23T18:03:41.060Z,90.20
2018-06-23T18:06:09.677Z,79.87
2018-06-23T18:08:38.118Z,78.77
2018-06-23T18:11:06.669Z,75.07
2018-06-23T18:13:35.192Z,67.23
2018-06-23T18:16:03.793Z,57.50
2018-06-23T18:18:33.377Z,62.77
2018-06-23T18:21:01.954Z,76.63
2018-06-23T18:23:30.447Z,51.93
2018-06-23T18:25:58.892Z,52.23
2018-06-23T18:28:27.741Z,60.30
2018-06-23T18:30:56.228Z,50.27
2018-06-23T18:33:24.740Z,53.53
2018-06-23T18:35:53.221Z,66.87
2018-06-23T18:38:21.679Z,61.93
2018-06-23T18:40:50.166Z,56.80
2018-06-23T18:43:19.118Z,73.03
2018-06-23T18:45:48.305Z,85.20
2018-06-23T18:48:16.830Z,115.73
2018-06-23T18:50:45.304Z,188.73
2018-06-23T18:53:14.059Z,198.27
2018-06-23T18:55:42.585Z,215.77
2018-06-23T18:58:11.064Z,185.97
2018-06-23T19:00:39.566Z,196.47
2018-06-23T19:03:08.139Z,148.13
2018-06-23T19:05:36.819Z,124.00
2018-06-23T19:08:05.699Z,127.77
2018-06-23T19:10:34.202Z,112.30
2018-06-23T19:13:02.727Z,103.47
2018-06-23T19:15:32.629Z,95.23
2018-06-23T19:18:01.145Z,94.13
2018-06-23T19:20:29.839Z,110.13
2018-06-23T19:22:58.356Z,129.27
2018-06-23T19:25:27.348Z,167.03
2018-06-23T19:27:55.884Z,131.23
2018-06-23T19:30:24.411Z,177.33
2018-06-23T19:32:52.894Z,179.23
2018-06-23T19:35:21.071Z,187.80
2018-06-23T19:37:49.764Z,176.47
2018-06-23T19:40:18.398Z,187.03
2018-06-23T19:42:46.905Z,151.67
2018-06-23T19:45:15.450Z,127.50
2018-06-23T19:47:44.168Z,108.93
2018-06-23T19:50:12.647Z,96.33
2018-06-23T19:52:41.144Z,100.63
2018-06-23T19:55:09.335Z,57.87
2018-06-23T19:57:37.863Z,46.63
2018-06-23T20:00:06.304Z,42.97
2018-06-23T20:02:34.484Z,39.13
2018-06-23T20:05:02.929Z,36.63
2018-06-23T20:07:31.502Z,36.73
2018-06-23T20:10:00.052Z,36.77
2018-06-23T20:12:28.532Z,35.70
2018-06-23T20:14:57.028Z,40.80
2018-06-23T20:17:25.502Z,46.30
2018-06-23T20:19:54.249Z,69.27
2018-06-23T20:22:22.734Z,64.03
2018-06-23T20:24:51.193Z,67.87
2018-06-23T20:27:19.733Z,58.57
2018-06-23T20:29:48.400Z,103.43
2018-06-23T20:32:16.612Z,155.50
2018-06-23T20:34:45.110Z,138.03
2018-06-23T20:37:13.609Z,133.77
2018-06-23T20:39:42.165Z,135.47
2018-06-23T20:42:10.648Z,123.50
2018-06-23T20:44:39.125Z,122.27
2018-06-23T20:47:07.752Z,174.83
2018-06-23T20:49:36.270Z,165.73
2018-06-23T20:52:04.786Z,173.47
2018-06-23T20:54:33.305Z,196.30
2018-06-23T20:57:01.812Z,196.90
2018-06-23T20:59:29.981Z,206.10
2018-06-23T21:01:58.540Z,219.47
2018-06-23T21:04:27.263Z,242.93
2018-06-23T21:06:55.975Z,290.90
2018-06-23T21:09:24.484Z,292.57
2018-06-23T21:11:53.012Z,308.50
2018-06-23T21:14:21.174Z,310.53
2018-06-23T21:16:49.651Z,343.13
2018-06-23T21:19:18.180Z,335.47
2018-06-23T21:21:46.640Z,353.53
2018-06-23T21:24:15.149Z,330.03
2018-06-23T21:26:43.660Z,329.40
2018-06-23T21:29:12.134Z,308.23
2018-06-23T21:31:40.661Z,308.97
2018-06-23T21:34:08.890Z,259.87
2018-06-23T21:36:37.349Z,239.20
2018-06-23T21:39:07.288Z,252.50
2018-06-23T21:41:35.760Z,244.70
2018-06-23T21:44:04.261Z,257.67
2018-06-23T21:46:32.808Z,271.17
2018-06-23T21:49:01.650Z,265.87
2018-06-23T21:51:30.105Z,279.70
2018-06-23T21:53:58.560Z,304.07
2018-06-23T21:56:27.243Z,328.17
2018-06-23T21:58:55.672Z,338.93
2018-06-23T22:01:24.178Z,361.03
2018-06-23T22:03:52.656Z,364.60
2018-06-23T22:06:20.904Z,375.20
2018-06-23T22:08:49.660Z,399.90
2018-06-23T22:11:18.186Z,415.23
2018-06-23T22:13:46.714Z,400.47
2018-06-23T22:16:15.621Z,402.33
2018-06-23T22:18:44.159Z,397.90
2018-06-23T22:21:12.945Z,390.17
2018-06-23T22:23:46.412Z,357.63
2018-06-23T22:26:14.956Z,343.17
2018-06-23T22:28:44.229Z,322.30
2018-06-23T22:31:13.768Z,307.43
2018-06-23T22:33:42.512Z,279.10
2018-06-23T22:36:11.068Z,240.87
2018-06-23T22:38:39.968Z,236.03
2018-06-23T22:41:08.489Z,213.33
2018-06-23T22:43:37.316Z,208.07
2018-06-23T22:46:07.545Z,199.73
2018-06-23T22:48:36.184Z,204.27
2018-06-23T22:51:04.708Z,204.73
2018-06-23T22:53:33.209Z,200.77
2018-06-23T22:56:01.474Z,184.20
2018-06-23T22:58:29.947Z,163.83
2018-06-23T23:00:58.501Z,175.60
2018-06-23T23:03:26.989Z,166.23
2018-06-23T23:05:55.601Z,183.20
2018-06-23T23:08:24.134Z,155.73
2018-06-23T23:10:52.625Z,180.53
2018-06-23T23:13:20.838Z,175.47
2018-06-23T23:15:49.355Z,166.17
2018-06-23T23:18:17.839Z,178.57
2018-06-23T23:20:46.332Z,179.17
2018-06-23T23:23:14.856Z,172.27
2018-06-23T23:25:43.349Z,169.73
2018-06-23T23:28:11.881Z,156.33
2018-06-23T23:30:40.353Z,156.67
2018-06-23T23:33:08.879Z,146.07
2018-06-23T23:35:37.351Z,142.53
2018-06-23T23:38:05.889Z,139.83
2018-06-23T23:40:34.373Z,166.73
2018-06-23T23:43:02.914Z,148.23
2018-06-23T23:45:31.457Z,136.07
2018-06-23T23:47:59.947Z,148.87
2018-06-23T23:50:28.450Z,157.70
2018-06-23T23:52:56.945Z,173.83
2018-06-23T23:55:25.510Z,164.47
2018-06-23T23:57:54.288Z,140.53
